sensor_id;sensor_type;location;lat;lon;timestamp;P1;durP1;ratioP1;P2;durP2;ratioP2
57291;SDS011;43144;50.972;18.220;2022-08-21T00:00:22;6.60;;;5.90;;
57291;SDS011;43144;50.972;18.220;2022-08-21T00:02:53;6.70;;;6.20;;
57291;SDS011;43144;50.972;18.220;2022-08-21T00:05:23;7.00;;;6.40;;
57291;SDS011;43144;50.972;18.220;2022-08-21T00:07:52;7.40;;;6.60;;
57291;SDS011;43144;50.972;18.220;2022-08-21T00:10:21;6.70;;;6.20;;
57291;SDS011;43144;50.972;18.220;2022-08-21T00:12:49;7.40;;;6.10;;
57291;SDS011;43144;50.972;18.220;2022-08-21T00:15:19;7.10;;;6.50;;
57291;SDS011;43144;50.972;18.220;2022-08-21T00:17:48;6.80;;;6.30;;
57291;SDS011;43144;50.972;18.220;2022-08-21T00:20:17;7.30;;;6.50;;
57291;SDS011;43144;50.972;18.220;2022-08-21T00:22:46;6.70;;;6.20;;
57291;SDS011;43144;50.972;18.220;2022-08-21T00:25:16;6.70;;;6.20;;
57291;SDS011;43144;50.972;18.220;2022-08-21T00:27:45;7.50;;;6.80;;
57291;SDS011;43144;50.972;18.220;2022-08-21T00:30:14;7.80;;;7.20;;
57291;SDS011;43144;50.972;18.220;2022-08-21T00:32:44;7.70;;;7.00;;
57291;SDS011;43144;50.972;18.220;2022-08-21T00:35:13;6.70;;;6.20;;
57291;SDS011;43144;50.972;18.220;2022-08-21T00:37:44;7.90;;;6.90;;
57291;SDS011;43144;50.972;18.220;2022-08-21T00:40:15;11.50;;;8.20;;
57291;SDS011;43144;50.972;18.220;2022-08-21T00:42:44;8.70;;;7.70;;
57291;SDS011;43144;50.972;18.220;2022-08-21T00:45:13;9.80;;;7.60;;
57291;SDS011;43144;50.972;18.220;2022-08-21T00:47:41;8.40;;;7.60;;
57291;SDS011;43144;50.972;18.220;2022-08-21T00:50:10;8.00;;;7.30;;
57291;SDS011;43144;50.972;18.220;2022-08-21T00:52:39;9.00;;;7.00;;
57291;SDS011;43144;50.972;18.220;2022-08-21T00:55:08;7.80;;;7.10;;
57291;SDS011;43144;50.972;18.220;2022-08-21T00:57:38;8.40;;;7.60;;
57291;SDS011;43144;50.972;18.220;2022-08-21T01:00:10;7.90;;;7.20;;
57291;SDS011;43144;50.972;18.220;2022-08-21T01:02:40;8.10;;;7.40;;
57291;SDS011;43144;50.972;18.220;2022-08-21T01:05:09;8.70;;;7.90;;
57291;SDS011;43144;50.972;18.220;2022-08-21T01:07:38;7.80;;;7.20;;
57291;SDS011;43144;50.972;18.220;2022-08-21T01:10:07;8.50;;;7.80;;
57291;SDS011;43144;50.972;18.220;2022-08-21T01:12:36;8.90;;;8.00;;
57291;SDS011;43144;50.972;18.220;2022-08-21T01:15:05;8.50;;;7.80;;
57291;SDS011;43144;50.972;18.220;2022-08-21T01:17:35;8.40;;;7.70;;
57291;SDS011;43144;50.972;18.220;2022-08-21T01:20:06;7.60;;;6.80;;
57291;SDS011;43144;50.972;18.220;2022-08-21T01:22:36;7.40;;;6.70;;
57291;SDS011;43144;50.972;18.220;2022-08-21T01:25:05;7.10;;;6.30;;
57291;SDS011;43144;50.972;18.220;2022-08-21T01:27:36;7.60;;;7.00;;
57291;SDS011;43144;50.972;18.220;2022-08-21T01:30:07;7.40;;;6.50;;
57291;SDS011;43144;50.972;18.220;2022-08-21T01:32:37;7.40;;;6.60;;
57291;SDS011;43144;50.972;18.220;2022-08-21T01:35:06;6.70;;;6.20;;
57291;SDS011;43144;50.972;18.220;2022-08-21T01:37:35;7.10;;;6.40;;
57291;SDS011;43144;50.972;18.220;2022-08-21T01:40:04;6.20;;;5.60;;
57291;SDS011;43144;50.972;18.220;2022-08-21T01:42:34;8.10;;;6.30;;
57291;SDS011;43144;50.972;18.220;2022-08-21T01:45:02;8.10;;;6.50;;
57291;SDS011;43144;50.972;18.220;2022-08-21T01:47:31;7.60;;;6.90;;
57291;SDS011;43144;50.972;18.220;2022-08-21T01:50:00;7.10;;;6.50;;
57291;SDS011;43144;50.972;18.220;2022-08-21T01:52:29;7.20;;;6.60;;
57291;SDS011;43144;50.972;18.220;2022-08-21T01:54:57;7.50;;;6.80;;
57291;SDS011;43144;50.972;18.220;2022-08-21T01:57:25;8.70;;;7.90;;
57291;SDS011;43144;50.972;18.220;2022-08-21T01:59:54;8.80;;;7.40;;
57291;SDS011;43144;50.972;18.220;2022-08-21T02:02:22;11.20;;;7.70;;
57291;SDS011;43144;50.972;18.220;2022-08-21T02:04:51;9.40;;;8.10;;
57291;SDS011;43144;50.972;18.220;2022-08-21T02:07:19;9.60;;;8.00;;
57291;SDS011;43144;50.972;18.220;2022-08-21T02:09:47;7.80;;;7.10;;
57291;SDS011;43144;50.972;18.220;2022-08-21T02:12:15;8.30;;;7.60;;
57291;SDS011;43144;50.972;18.220;2022-08-21T02:14:44;7.70;;;7.10;;
57291;SDS011;43144;50.972;18.220;2022-08-21T02:17:12;8.30;;;7.60;;
57291;SDS011;43144;50.972;18.220;2022-08-21T02:19:42;8.60;;;7.70;;
57291;SDS011;43144;50.972;18.220;2022-08-21T02:22:11;8.30;;;7.70;;
57291;SDS011;43144;50.972;18.220;2022-08-21T02:24:39;7.50;;;6.80;;
57291;SDS011;43144;50.972;18.220;2022-08-21T02:27:07;8.40;;;7.60;;
57291;SDS011;43144;50.972;18.220;2022-08-21T02:29:36;8.80;;;7.60;;
57291;SDS011;43144;50.972;18.220;2022-08-21T02:32:04;8.60;;;7.40;;
57291;SDS011;43144;50.972;18.220;2022-08-21T02:34:32;7.70;;;7.00;;
57291;SDS011;43144;50.972;18.220;2022-08-21T02:37:00;9.30;;;6.70;;
57291;SDS011;43144;50.972;18.220;2022-08-21T02:39:29;8.70;;;7.10;;
57291;SDS011;43144;50.972;18.220;2022-08-21T02:41:57;10.00;;;7.30;;
57291;SDS011;43144;50.972;18.220;2022-08-21T02:44:25;9.10;;;8.30;;
57291;SDS011;43144;50.972;18.220;2022-08-21T02:46:53;11.40;;;8.30;;
57291;SDS011;43144;50.972;18.220;2022-08-21T02:49:21;9.00;;;8.10;;
57291;SDS011;43144;50.972;18.220;2022-08-21T02:51:50;8.30;;;7.50;;
57291;SDS011;43144;50.972;18.220;2022-08-21T02:54:18;8.90;;;7.60;;
57291;SDS011;43144;50.972;18.220;2022-08-21T02:56:46;9.80;;;8.40;;
57291;SDS011;43144;50.972;18.220;2022-08-21T02:59:14;8.90;;;7.30;;
57291;SDS011;43144;50.972;18.220;2022-08-21T03:01:43;7.40;;;6.60;;
57291;SDS011;43144;50.972;18.220;2022-08-21T03:04:11;7.20;;;6.00;;
57291;SDS011;43144;50.972;18.220;2022-08-21T03:06:40;4.80;;;4.30;;
57291;SDS011;43144;50.972;18.220;2022-08-21T03:09:08;6.70;;;4.00;;
57291;SDS011;43144;50.972;18.220;2022-08-21T03:11:36;7.70;;;4.40;;
57291;SDS011;43144;50.972;18.220;2022-08-21T03:14:04;6.10;;;3.70;;
57291;SDS011;43144;50.972;18.220;2022-08-21T03:16:32;5.10;;;3.80;;
57291;SDS011;43144;50.972;18.220;2022-08-21T03:19:01;4.40;;;3.50;;
57291;SDS011;43144;50.972;18.220;2022-08-21T03:21:29;5.40;;;3.00;;
57291;SDS011;43144;50.972;18.220;2022-08-21T03:23:58;4.40;;;3.00;;
57291;SDS011;43144;50.972;18.220;2022-08-21T03:26:26;4.70;;;2.90;;
57291;SDS011;43144;50.972;18.220;2022-08-21T03:28:54;5.40;;;2.90;;
57291;SDS011;43144;50.972;18.220;2022-08-21T03:31:22;4.90;;;2.90;;
57291;SDS011;43144;50.972;18.220;2022-08-21T03:33:51;5.30;;;3.00;;
57291;SDS011;43144;50.972;18.220;2022-08-21T03:36:19;5.00;;;2.90;;
57291;SDS011;43144;50.972;18.220;2022-08-21T03:38:47;5.20;;;3.00;;
57291;SDS011;43144;50.972;18.220;2022-08-21T03:41:15;5.40;;;2.70;;
57291;SDS011;43144;50.972;18.220;2022-08-21T03:43:43;4.60;;;2.40;;
57291;SDS011;43144;50.972;18.220;2022-08-21T03:46:11;4.80;;;2.30;;
57291;SDS011;43144;50.972;18.220;2022-08-21T03:48:40;6.30;;;2.60;;
57291;SDS011;43144;50.972;18.220;2022-08-21T03:51:09;4.20;;;2.50;;
57291;SDS011;43144;50.972;18.220;2022-08-21T03:53:37;4.40;;;2.50;;
57291;SDS011;43144;50.972;18.220;2022-08-21T03:56:06;5.50;;;2.20;;
57291;SDS011;43144;50.972;18.220;2022-08-21T03:58:34;5.50;;;2.10;;
57291;SDS011;43144;50.972;18.220;2022-08-21T04:01:03;5.10;;;2.40;;
57291;SDS011;43144;50.972;18.220;2022-08-21T04:03:34;3.60;;;2.30;;
57291;SDS011;43144;50.972;18.220;2022-08-21T04:06:03;4.20;;;2.00;;
57291;SDS011;43144;50.972;18.220;2022-08-21T04:08:32;5.50;;;2.50;;
57291;SDS011;43144;50.972;18.220;2022-08-21T04:11:00;4.10;;;2.30;;
57291;SDS011;43144;50.972;18.220;2022-08-21T04:13:29;5.30;;;2.50;;
57291;SDS011;43144;50.972;18.220;2022-08-21T04:15:57;7.70;;;2.70;;
57291;SDS011;43144;50.972;18.220;2022-08-21T04:18:25;6.00;;;2.40;;
57291;SDS011;43144;50.972;18.220;2022-08-21T04:20:54;3.80;;;2.10;;
57291;SDS011;43144;50.972;18.220;2022-08-21T04:23:24;4.80;;;2.50;;
57291;SDS011;43144;50.972;18.220;2022-08-21T04:25:53;4.80;;;2.60;;
57291;SDS011;43144;50.972;18.220;2022-08-21T04:28:22;5.40;;;2.50;;
57291;SDS011;43144;50.972;18.220;2022-08-21T04:30:51;6.10;;;2.70;;
57291;SDS011;43144;50.972;18.220;2022-08-21T04:33:19;5.30;;;2.60;;
57291;SDS011;43144;50.972;18.220;2022-08-21T04:35:48;5.20;;;2.70;;
57291;SDS011;43144;50.972;18.220;2022-08-21T04:38:16;9.00;;;3.10;;
57291;SDS011;43144;50.972;18.220;2022-08-21T04:40:45;5.20;;;2.50;;
57291;SDS011;43144;50.972;18.220;2022-08-21T04:43:14;4.20;;;2.50;;
57291;SDS011;43144;50.972;18.220;2022-08-21T04:45:43;4.70;;;2.80;;
57291;SDS011;43144;50.972;18.220;2022-08-21T04:48:13;8.60;;;2.90;;
57291;SDS011;43144;50.972;18.220;2022-08-21T04:50:43;7.50;;;3.00;;
57291;SDS011;43144;50.972;18.220;2022-08-21T04:53:14;6.70;;;2.90;;
57291;SDS011;43144;50.972;18.220;2022-08-21T04:55:44;5.20;;;3.10;;
57291;SDS011;43144;50.972;18.220;2022-08-21T04:58:14;4.70;;;2.60;;
57291;SDS011;43144;50.972;18.220;2022-08-21T05:00:44;4.50;;;2.70;;
57291;SDS011;43144;50.972;18.220;2022-08-21T05:03:13;5.70;;;2.70;;
57291;SDS011;43144;50.972;18.220;2022-08-21T05:05:42;7.50;;;2.80;;
57291;SDS011;43144;50.972;18.220;2022-08-21T05:08:13;5.00;;;2.90;;
57291;SDS011;43144;50.972;18.220;2022-08-21T05:10:42;4.90;;;2.70;;
57291;SDS011;43144;50.972;18.220;2022-08-21T05:13:11;4.70;;;2.70;;
57291;SDS011;43144;50.972;18.220;2022-08-21T05:15:40;5.60;;;2.90;;
57291;SDS011;43144;50.972;18.220;2022-08-21T05:18:08;5.40;;;2.70;;
57291;SDS011;43144;50.972;18.220;2022-08-21T05:20:36;2.50;;;2.30;;
57291;SDS011;43144;50.972;18.220;2022-08-21T05:23:07;5.80;;;2.80;;
57291;SDS011;43144;50.972;18.220;2022-08-21T05:25:37;6.70;;;2.80;;
57291;SDS011;43144;50.972;18.220;2022-08-21T05:28:06;4.90;;;2.70;;
57291;SDS011;43144;50.972;18.220;2022-08-21T05:30:34;5.90;;;2.70;;
57291;SDS011;43144;50.972;18.220;2022-08-21T05:33:04;7.50;;;2.80;;
57291;SDS011;43144;50.972;18.220;2022-08-21T05:35:33;4.50;;;2.30;;
57291;SDS011;43144;50.972;18.220;2022-08-21T05:38:02;5.10;;;2.40;;
57291;SDS011;43144;50.972;18.220;2022-08-21T05:40:32;4.80;;;2.80;;
57291;SDS011;43144;50.972;18.220;2022-08-21T05:43:00;5.00;;;2.60;;
57291;SDS011;43144;50.972;18.220;2022-08-21T05:45:31;5.20;;;2.40;;
57291;SDS011;43144;50.972;18.220;2022-08-21T05:48:06;5.70;;;2.40;;
57291;SDS011;43144;50.972;18.220;2022-08-21T05:50:36;4.50;;;2.50;;
57291;SDS011;43144;50.972;18.220;2022-08-21T05:53:05;3.20;;;2.00;;
57291;SDS011;43144;50.972;18.220;2022-08-21T05:55:34;5.60;;;2.30;;
57291;SDS011;43144;50.972;18.220;2022-08-21T05:58:03;4.00;;;2.50;;
57291;SDS011;43144;50.972;18.220;2022-08-21T06:00:32;5.30;;;2.50;;
57291;SDS011;43144;50.972;18.220;2022-08-21T06:03:00;3.40;;;1.90;;
57291;SDS011;43144;50.972;18.220;2022-08-21T06:05:29;5.90;;;2.60;;
57291;SDS011;43144;50.972;18.220;2022-08-21T06:07:57;4.10;;;2.40;;
57291;SDS011;43144;50.972;18.220;2022-08-21T06:10:25;3.50;;;2.20;;
57291;SDS011;43144;50.972;18.220;2022-08-21T06:12:54;4.80;;;2.50;;
57291;SDS011;43144;50.972;18.220;2022-08-21T06:15:22;5.80;;;2.70;;
57291;SDS011;43144;50.972;18.220;2022-08-21T06:17:51;6.30;;;2.70;;
57291;SDS011;43144;50.972;18.220;2022-08-21T06:20:20;6.50;;;2.60;;
57291;SDS011;43144;50.972;18.220;2022-08-21T06:22:48;5.50;;;2.80;;
57291;SDS011;43144;50.972;18.220;2022-08-21T06:25:17;6.40;;;2.80;;
57291;SDS011;43144;50.972;18.220;2022-08-21T06:27:45;5.40;;;3.00;;
57291;SDS011;43144;50.972;18.220;2022-08-21T06:30:14;5.80;;;4.40;;
57291;SDS011;43144;50.972;18.220;2022-08-21T06:32:42;7.30;;;5.40;;
57291;SDS011;43144;50.972;18.220;2022-08-21T06:35:11;6.80;;;4.70;;
57291;SDS011;43144;50.972;18.220;2022-08-21T06:37:39;7.10;;;4.60;;
57291;SDS011;43144;50.972;18.220;2022-08-21T06:40:08;6.00;;;5.00;;
57291;SDS011;43144;50.972;18.220;2022-08-21T06:42:36;5.70;;;5.10;;
57291;SDS011;43144;50.972;18.220;2022-08-21T06:45:05;5.30;;;4.80;;
57291;SDS011;43144;50.972;18.220;2022-08-21T06:47:34;8.30;;;4.80;;
57291;SDS011;43144;50.972;18.220;2022-08-21T06:50:05;6.00;;;4.50;;
57291;SDS011;43144;50.972;18.220;2022-08-21T06:52:34;7.50;;;4.90;;
57291;SDS011;43144;50.972;18.220;2022-08-21T06:55:03;7.80;;;7.10;;
57291;SDS011;43144;50.972;18.220;2022-08-21T06:57:33;7.10;;;4.30;;
57291;SDS011;43144;50.972;18.220;2022-08-21T07:00:03;5.60;;;4.40;;
57291;SDS011;43144;50.972;18.220;2022-08-21T07:02:32;5.50;;;4.30;;
57291;SDS011;43144;50.972;18.220;2022-08-21T07:05:01;5.20;;;3.80;;
57291;SDS011;43144;50.972;18.220;2022-08-21T07:07:29;4.00;;;3.00;;
57291;SDS011;43144;50.972;18.220;2022-08-21T07:09:58;3.90;;;3.00;;
57291;SDS011;43144;50.972;18.220;2022-08-21T07:12:26;3.90;;;2.60;;
57291;SDS011;43144;50.972;18.220;2022-08-21T07:14:55;4.10;;;2.40;;
57291;SDS011;43144;50.972;18.220;2022-08-21T07:17:23;6.60;;;2.40;;
57291;SDS011;43144;50.972;18.220;2022-08-21T07:19:51;2.70;;;1.80;;
57291;SDS011;43144;50.972;18.220;2022-08-21T07:22:19;2.60;;;2.00;;
57291;SDS011;43144;50.972;18.220;2022-08-21T07:24:48;2.40;;;1.80;;
57291;SDS011;43144;50.972;18.220;2022-08-21T07:27:16;3.00;;;1.70;;
57291;SDS011;43144;50.972;18.220;2022-08-21T07:29:44;2.80;;;1.60;;
57291;SDS011;43144;50.972;18.220;2022-08-21T07:32:12;2.10;;;1.40;;
57291;SDS011;43144;50.972;18.220;2022-08-21T07:34:41;2.40;;;1.40;;
57291;SDS011;43144;50.972;18.220;2022-08-21T07:37:09;2.80;;;1.40;;
57291;SDS011;43144;50.972;18.220;2022-08-21T07:39:38;3.40;;;1.00;;
57291;SDS011;43144;50.972;18.220;2022-08-21T07:42:06;1.70;;;0.80;;
57291;SDS011;43144;50.972;18.220;2022-08-21T07:44:35;0.90;;;0.60;;
57291;SDS011;43144;50.972;18.220;2022-08-21T07:47:03;1.80;;;0.70;;
57291;SDS011;43144;50.972;18.220;2022-08-21T07:49:31;0.90;;;0.60;;
57291;SDS011;43144;50.972;18.220;2022-08-21T07:51:59;0.50;;;0.40;;
57291;SDS011;43144;50.972;18.220;2022-08-21T07:54:28;1.30;;;0.50;;
57291;SDS011;43144;50.972;18.220;2022-08-21T07:56:56;0.80;;;0.50;;
57291;SDS011;43144;50.972;18.220;2022-08-21T07:59:24;1.80;;;0.50;;
57291;SDS011;43144;50.972;18.220;2022-08-21T08:01:52;1.70;;;0.60;;
57291;SDS011;43144;50.972;18.220;2022-08-21T08:04:20;0.90;;;0.50;;
57291;SDS011;43144;50.972;18.220;2022-08-21T08:06:48;0.90;;;0.50;;
57291;SDS011;43144;50.972;18.220;2022-08-21T08:09:17;0.40;;;0.40;;
57291;SDS011;43144;50.972;18.220;2022-08-21T08:11:45;0.90;;;0.50;;
57291;SDS011;43144;50.972;18.220;2022-08-21T08:14:14;0.90;;;0.40;;
57291;SDS011;43144;50.972;18.220;2022-08-21T08:16:42;0.30;;;0.30;;
57291;SDS011;43144;50.972;18.220;2022-08-21T08:19:10;0.50;;;0.30;;
57291;SDS011;43144;50.972;18.220;2022-08-21T08:21:38;0.40;;;0.30;;
57291;SDS011;43144;50.972;18.220;2022-08-21T08:24:06;0.60;;;0.40;;
57291;SDS011;43144;50.972;18.220;2022-08-21T08:26:34;0.50;;;0.40;;
57291;SDS011;43144;50.972;18.220;2022-08-21T08:29:03;0.60;;;0.30;;
57291;SDS011;43144;50.972;18.220;2022-08-21T08:31:31;0.90;;;0.40;;
57291;SDS011;43144;50.972;18.220;2022-08-21T08:33:59;0.90;;;0.40;;
57291;SDS011;43144;50.972;18.220;2022-08-21T08:36:32;0.80;;;0.40;;
57291;SDS011;43144;50.972;18.220;2022-08-21T08:39:03;1.00;;;0.40;;
57291;SDS011;43144;50.972;18.220;2022-08-21T08:41:32;0.50;;;0.30;;
57291;SDS011;43144;50.972;18.220;2022-08-21T08:44:01;0.60;;;0.40;;
57291;SDS011;43144;50.972;18.220;2022-08-21T08:46:33;0.50;;;0.30;;
57291;SDS011;43144;50.972;18.220;2022-08-21T08:49:08;0.60;;;0.40;;
57291;SDS011;43144;50.972;18.220;2022-08-21T08:51:41;0.90;;;0.70;;
57291;SDS011;43144;50.972;18.220;2022-08-21T08:54:14;0.90;;;0.40;;
57291;SDS011;43144;50.972;18.220;2022-08-21T08:56:44;1.60;;;0.30;;
57291;SDS011;43144;50.972;18.220;2022-08-21T08:59:13;0.40;;;0.40;;
57291;SDS011;43144;50.972;18.220;2022-08-21T09:01:44;0.50;;;0.30;;
57291;SDS011;43144;50.972;18.220;2022-08-21T09:04:13;0.30;;;0.20;;
57291;SDS011;43144;50.972;18.220;2022-08-21T09:06:49;0.60;;;0.30;;
57291;SDS011;43144;50.972;18.220;2022-08-21T09:09:25;0.40;;;0.30;;
57291;SDS011;43144;50.972;18.220;2022-08-21T09:12:02;2.90;;;0.30;;
57291;SDS011;43144;50.972;18.220;2022-08-21T09:17:12;0.30;;;0.30;;
57291;SDS011;43144;50.972;18.220;2022-08-21T09:19:48;1.10;;;0.30;;
57291;SDS011;43144;50.972;18.220;2022-08-21T09:22:26;0.50;;;0.30;;
57291;SDS011;43144;50.972;18.220;2022-08-21T09:25:03;0.60;;;0.30;;
57291;SDS011;43144;50.972;18.220;2022-08-21T09:27:37;0.50;;;0.20;;
57291;SDS011;43144;50.972;18.220;2022-08-21T09:30:06;0.30;;;0.30;;
57291;SDS011;43144;50.972;18.220;2022-08-21T09:32:36;0.30;;;0.30;;
57291;SDS011;43144;50.972;18.220;2022-08-21T09:35:07;1.40;;;0.20;;
57291;SDS011;43144;50.972;18.220;2022-08-21T09:37:46;0.20;;;0.20;;
57291;SDS011;43144;50.972;18.220;2022-08-21T09:40:23;0.30;;;0.30;;
57291;SDS011;43144;50.972;18.220;2022-08-21T09:42:57;0.30;;;0.30;;
57291;SDS011;43144;50.972;18.220;2022-08-21T09:45:27;0.80;;;0.30;;
57291;SDS011;43144;50.972;18.220;2022-08-21T09:47:55;0.50;;;0.30;;
57291;SDS011;43144;50.972;18.220;2022-08-21T09:50:33;0.30;;;0.30;;
57291;SDS011;43144;50.972;18.220;2022-08-21T09:53:02;0.30;;;0.30;;
57291;SDS011;43144;50.972;18.220;2022-08-21T09:55:32;1.80;;;0.30;;
57291;SDS011;43144;50.972;18.220;2022-08-21T09:58:05;0.40;;;0.30;;
57291;SDS011;43144;50.972;18.220;2022-08-21T10:00:34;0.30;;;0.30;;
57291;SDS011;43144;50.972;18.220;2022-08-21T10:05:50;0.30;;;0.30;;
57291;SDS011;43144;50.972;18.220;2022-08-21T10:08:21;0.20;;;0.20;;
57291;SDS011;43144;50.972;18.220;2022-08-21T10:10:53;0.40;;;0.30;;
57291;SDS011;43144;50.972;18.220;2022-08-21T10:13:28;0.40;;;0.30;;
57291;SDS011;43144;50.972;18.220;2022-08-21T10:16:13;0.40;;;0.40;;
57291;SDS011;43144;50.972;18.220;2022-08-21T10:18:46;0.40;;;0.40;;
57291;SDS011;43144;50.972;18.220;2022-08-21T10:21:23;0.30;;;0.30;;
57291;SDS011;43144;50.972;18.220;2022-08-21T10:24:00;1.00;;;0.40;;
57291;SDS011;43144;50.972;18.220;2022-08-21T10:26:37;0.40;;;0.40;;
57291;SDS011;43144;50.972;18.220;2022-08-21T10:29:13;0.40;;;0.40;;
57291;SDS011;43144;50.972;18.220;2022-08-21T10:31:48;0.50;;;0.40;;
57291;SDS011;43144;50.972;18.220;2022-08-21T10:34:25;0.50;;;0.50;;
57291;SDS011;43144;50.972;18.220;2022-08-21T10:37:14;0.90;;;0.50;;
57291;SDS011;43144;50.972;18.220;2022-08-21T10:39:51;0.70;;;0.60;;
57291;SDS011;43144;50.972;18.220;2022-08-21T10:42:28;0.90;;;0.70;;
57291;SDS011;43144;50.972;18.220;2022-08-21T10:45:09;0.60;;;0.60;;
57291;SDS011;43144;50.972;18.220;2022-08-21T10:47:46;0.80;;;0.80;;
57291;SDS011;43144;50.972;18.220;2022-08-21T10:50:19;1.40;;;0.80;;
57291;SDS011;43144;50.972;18.220;2022-08-21T10:53:00;1.20;;;1.00;;
57291;SDS011;43144;50.972;18.220;2022-08-21T10:55:35;1.20;;;0.90;;
57291;SDS011;43144;50.972;18.220;2022-08-21T10:58:08;1.20;;;1.10;;
57291;SDS011;43144;50.972;18.220;2022-08-21T11:00:40;1.50;;;1.40;;
57291;SDS011;43144;50.972;18.220;2022-08-21T11:03:12;1.50;;;1.40;;
57291;SDS011;43144;50.972;18.220;2022-08-21T11:05:43;1.40;;;1.30;;
57291;SDS011;43144;50.972;18.220;2022-08-21T11:08:17;1.20;;;1.10;;
57291;SDS011;43144;50.972;18.220;2022-08-21T11:10:49;1.60;;;1.50;;
57291;SDS011;43144;50.972;18.220;2022-08-21T11:13:23;1.90;;;1.50;;
57291;SDS011;43144;50.972;18.220;2022-08-21T11:16:02;1.60;;;1.50;;
57291;SDS011;43144;50.972;18.220;2022-08-21T11:18:34;1.80;;;1.70;;
57291;SDS011;43144;50.972;18.220;2022-08-21T11:21:14;2.00;;;1.90;;
57291;SDS011;43144;50.972;18.220;2022-08-21T11:23:57;4.20;;;2.10;;
57291;SDS011;43144;50.972;18.220;2022-08-21T11:26:29;2.30;;;2.10;;
57291;SDS011;43144;50.972;18.220;2022-08-21T11:29:01;3.90;;;2.30;;
57291;SDS011;43144;50.972;18.220;2022-08-21T11:31:37;2.50;;;2.30;;
57291;SDS011;43144;50.972;18.220;2022-08-21T11:34:18;2.70;;;2.50;;
57291;SDS011;43144;50.972;18.220;2022-08-21T11:36:56;2.80;;;2.60;;
57291;SDS011;43144;50.972;18.220;2022-08-21T11:41:59;2.30;;;2.20;;
57291;SDS011;43144;50.972;18.220;2022-08-21T11:44:35;2.40;;;2.20;;
57291;SDS011;43144;50.972;18.220;2022-08-21T11:47:12;2.90;;;2.70;;
57291;SDS011;43144;50.972;18.220;2022-08-21T11:49:49;2.60;;;2.40;;
57291;SDS011;43144;50.972;18.220;2022-08-21T11:52:24;2.80;;;2.50;;
57291;SDS011;43144;50.972;18.220;2022-08-21T11:54:56;2.20;;;2.10;;
57291;SDS011;43144;50.972;18.220;2022-08-21T11:57:27;2.50;;;2.30;;
57291;SDS011;43144;50.972;18.220;2022-08-21T12:00:00;3.00;;;2.00;;
57291;SDS011;43144;50.972;18.220;2022-08-21T12:02:33;2.10;;;1.90;;
57291;SDS011;43144;50.972;18.220;2022-08-21T12:05:04;2.20;;;2.10;;
57291;SDS011;43144;50.972;18.220;2022-08-21T12:07:36;3.00;;;2.50;;
57291;SDS011;43144;50.972;18.220;2022-08-21T12:10:07;2.30;;;2.20;;
57291;SDS011;43144;50.972;18.220;2022-08-21T12:12:39;2.60;;;2.40;;
57291;SDS011;43144;50.972;18.220;2022-08-21T12:15:24;2.70;;;2.50;;
57291;SDS011;43144;50.972;18.220;2022-08-21T12:17:57;2.70;;;2.50;;
57291;SDS011;43144;50.972;18.220;2022-08-21T12:20:36;2.60;;;2.40;;
57291;SDS011;43144;50.972;18.220;2022-08-21T12:23:16;2.70;;;2.50;;
57291;SDS011;43144;50.972;18.220;2022-08-21T12:26:00;2.50;;;2.30;;
57291;SDS011;43144;50.972;18.220;2022-08-21T12:28:35;2.30;;;2.20;;
57291;SDS011;43144;50.972;18.220;2022-08-21T12:31:04;2.50;;;2.30;;
57291;SDS011;43144;50.972;18.220;2022-08-21T12:33:43;2.60;;;2.40;;
57291;SDS011;43144;50.972;18.220;2022-08-21T12:36:19;2.90;;;2.70;;
57291;SDS011;43144;50.972;18.220;2022-08-21T12:38:50;2.80;;;2.60;;
57291;SDS011;43144;50.972;18.220;2022-08-21T12:41:22;2.60;;;2.40;;
57291;SDS011;43144;50.972;18.220;2022-08-21T12:43:56;2.70;;;2.50;;
57291;SDS011;43144;50.972;18.220;2022-08-21T12:46:27;2.80;;;2.60;;
57291;SDS011;43144;50.972;18.220;2022-08-21T12:49:00;2.50;;;2.40;;
57291;SDS011;43144;50.972;18.220;2022-08-21T12:51:31;2.70;;;2.50;;
57291;SDS011;43144;50.972;18.220;2022-08-21T12:54:21;2.50;;;2.40;;
57291;SDS011;43144;50.972;18.220;2022-08-21T12:56:57;2.40;;;2.20;;
57291;SDS011;43144;50.972;18.220;2022-08-21T12:59:27;3.10;;;2.40;;
57291;SDS011;43144;50.972;18.220;2022-08-21T13:01:56;2.90;;;2.20;;
57291;SDS011;43144;50.972;18.220;2022-08-21T13:04:27;2.30;;;2.20;;
57291;SDS011;43144;50.972;18.220;2022-08-21T13:07:04;2.30;;;2.10;;
57291;SDS011;43144;50.972;18.220;2022-08-21T13:09:34;2.40;;;2.20;;
57291;SDS011;43144;50.972;18.220;2022-08-21T13:12:06;2.40;;;2.20;;
57291;SDS011;43144;50.972;18.220;2022-08-21T13:14:35;2.40;;;2.20;;
57291;SDS011;43144;50.972;18.220;2022-08-21T13:17:05;2.40;;;2.20;;
57291;SDS011;43144;50.972;18.220;2022-08-21T13:19:35;2.20;;;2.10;;
57291;SDS011;43144;50.972;18.220;2022-08-21T13:22:03;2.40;;;2.20;;
57291;SDS011;43144;50.972;18.220;2022-08-21T13:24:33;2.00;;;1.80;;
57291;SDS011;43144;50.972;18.220;2022-08-21T13:27:02;2.00;;;1.90;;
57291;SDS011;43144;50.972;18.220;2022-08-21T13:29:41;1.90;;;1.80;;
57291;SDS011;43144;50.972;18.220;2022-08-21T13:32:13;2.20;;;2.10;;
57291;SDS011;43144;50.972;18.220;2022-08-21T13:34:46;2.20;;;2.10;;
57291;SDS011;43144;50.972;18.220;2022-08-21T13:37:15;2.90;;;2.20;;
57291;SDS011;43144;50.972;18.220;2022-08-21T13:39:47;2.20;;;2.00;;
57291;SDS011;43144;50.972;18.220;2022-08-21T13:42:17;2.00;;;1.90;;
57291;SDS011;43144;50.972;18.220;2022-08-21T13:44:46;2.00;;;1.80;;
57291;SDS011;43144;50.972;18.220;2022-08-21T13:47:15;2.00;;;1.90;;
57291;SDS011;43144;50.972;18.220;2022-08-21T13:49:45;3.20;;;2.00;;
57291;SDS011;43144;50.972;18.220;2022-08-21T13:52:15;1.80;;;1.70;;
57291;SDS011;43144;50.972;18.220;2022-08-21T13:54:52;1.90;;;1.80;;
57291;SDS011;43144;50.972;18.220;2022-08-21T13:57:25;1.70;;;1.60;;
57291;SDS011;43144;50.972;18.220;2022-08-21T14:05:21;1.90;;;1.80;;
57291;SDS011;43144;50.972;18.220;2022-08-21T14:07:52;1.70;;;1.60;;
57291;SDS011;43144;50.972;18.220;2022-08-21T14:10:30;1.90;;;1.80;;
57291;SDS011;43144;50.972;18.220;2022-08-21T14:13:01;1.80;;;1.70;;
57291;SDS011;43144;50.972;18.220;2022-08-21T14:15:32;2.10;;;1.90;;
57291;SDS011;43144;50.972;18.220;2022-08-21T14:18:09;2.00;;;1.90;;
57291;SDS011;43144;50.972;18.220;2022-08-21T14:20:42;1.80;;;1.70;;
57291;SDS011;43144;50.972;18.220;2022-08-21T14:23:10;2.10;;;2.00;;
57291;SDS011;43144;50.972;18.220;2022-08-21T14:25:40;1.90;;;1.70;;
57291;SDS011;43144;50.972;18.220;2022-08-21T14:28:13;2.40;;;2.00;;
57291;SDS011;43144;50.972;18.220;2022-08-21T14:30:45;2.40;;;1.70;;
57291;SDS011;43144;50.972;18.220;2022-08-21T14:33:16;2.20;;;1.80;;
57291;SDS011;43144;50.972;18.220;2022-08-21T14:35:47;2.10;;;1.80;;
57291;SDS011;43144;50.972;18.220;2022-08-21T14:38:17;1.70;;;1.60;;
57291;SDS011;43144;50.972;18.220;2022-08-21T14:40:47;1.80;;;1.70;;
57291;SDS011;43144;50.972;18.220;2022-08-21T14:43:17;2.10;;;1.90;;
57291;SDS011;43144;50.972;18.220;2022-08-21T14:45:46;1.80;;;1.70;;
57291;SDS011;43144;50.972;18.220;2022-08-21T14:48:15;1.80;;;1.70;;
57291;SDS011;43144;50.972;18.220;2022-08-21T14:50:43;2.30;;;2.20;;
57291;SDS011;43144;50.972;18.220;2022-08-21T14:53:11;2.00;;;1.80;;
57291;SDS011;43144;50.972;18.220;2022-08-21T14:55:40;2.30;;;1.80;;
57291;SDS011;43144;50.972;18.220;2022-08-21T14:58:08;2.40;;;1.70;;
57291;SDS011;43144;50.972;18.220;2022-08-21T15:00:36;2.00;;;1.80;;
57291;SDS011;43144;50.972;18.220;2022-08-21T15:03:04;1.70;;;1.60;;
57291;SDS011;43144;50.972;18.220;2022-08-21T15:05:32;1.70;;;1.60;;